sensor_id;sensor_type;location;lat;lon;timestamp;temperature;humidity
9849;DHT22;4963;51.444;6.528;2022-11-09T00:02:26;13.80;99.90
9849;DHT22;4963;51.444;6.528;2022-11-09T00:04:54;13.70;99.90
9849;DHT22;4963;51.444;6.528;2022-11-09T00:07:21;13.70;99.90
9849;DHT22;4963;51.444;6.528;2022-11-09T00:09:48;13.70;99.90
9849;DHT22;4963;51.444;6.528;2022-11-09T00:12:15;13.70;99.90
9849;DHT22;4963;51.444;6.528;2022-11-09T00:14:41;13.70;99.90
9849;DHT22;4963;51.444;6.528;2022-11-09T00:17:08;13.70;99.90
9849;DHT22;4963;51.444;6.528;2022-11-09T00:19:35;13.70;99.90
9849;DHT22;4963;51.444;6.528;2022-11-09T00:22:03;13.70;99.90
9849;DHT22;4963;51.444;6.528;2022-11-09T00:24:30;13.70;99.90
9849;DHT22;4963;51.444;6.528;2022-11-09T00:26:57;13.70;99.90
9849;DHT22;4963;51.444;6.528;2022-11-09T00:29:23;13.70;99.90
9849;DHT22;4963;51.444;6.528;2022-11-09T00:31:50;13.70;99.90
9849;DHT22;4963;51.444;6.528;2022-11-09T00:34:17;13.60;99.90
9849;DHT22;4963;51.444;6.528;2022-11-09T00:36:44;13.60;99.90
9849;DHT22;4963;51.444;6.528;2022-11-09T00:39:12;13.60;99.90
9849;DHT22;4963;51.444;6.528;2022-11-09T00:41:38;13.70;99.90
9849;DHT22;4963;51.444;6.528;2022-11-09T00:44:05;13.70;99.90
9849;DHT22;4963;51.444;6.528;2022-11-09T00:46:32;13.70;99.90
9849;DHT22;4963;51.444;6.528;2022-11-09T00:48:59;13.70;99.90
9849;DHT22;4963;51.444;6.528;2022-11-09T00:51:26;13.60;99.90
9849;DHT22;4963;51.444;6.528;2022-11-09T00:53:54;13.60;99.90
9849;DHT22;4963;51.444;6.528;2022-11-09T00:56:24;13.60;99.90
9849;DHT22;4963;51.444;6.528;2022-11-09T00:58:54;13.60;99.90
9849;DHT22;4963;51.444;6.528;2022-11-09T01:01:21;13.60;99.90
9849;DHT22;4963;51.444;6.528;2022-11-09T01:03:48;13.60;99.90
9849;DHT22;4963;51.444;6.528;2022-11-09T01:06:17;13.50;99.90
9849;DHT22;4963;51.444;6.528;2022-11-09T01:08:45;13.50;99.90
9849;DHT22;4963;51.444;6.528;2022-11-09T01:11:12;13.50;99.90
9849;DHT22;4963;51.444;6.528;2022-11-09T01:13:41;13.50;99.90
9849;DHT22;4963;51.444;6.528;2022-11-09T01:16:10;13.50;99.90
9849;DHT22;4963;51.444;6.528;2022-11-09T01:18:38;13.50;99.90
9849;DHT22;4963;51.444;6.528;2022-11-09T01:21:06;13.50;99.90
9849;DHT22;4963;51.444;6.528;2022-11-09T01:23:34;13.50;99.90
9849;DHT22;4963;51.444;6.528;2022-11-09T01:26:03;13.50;99.90
9849;DHT22;4963;51.444;6.528;2022-11-09T01:28:30;13.50;99.90
9849;DHT22;4963;51.444;6.528;2022-11-09T01:31:01;13.50;99.90
9849;DHT22;4963;51.444;6.528;2022-11-09T01:33:29;13.50;99.90
9849;DHT22;4963;51.444;6.528;2022-11-09T01:36:01;13.50;99.90
9849;DHT22;4963;51.444;6.528;2022-11-09T01:38:27;13.50;99.90
9849;DHT22;4963;51.444;6.528;2022-11-09T01:40:54;13.50;99.90
9849;DHT22;4963;51.444;6.528;2022-11-09T01:43:22;13.50;99.90
9849;DHT22;4963;51.444;6.528;2022-11-09T01:45:52;13.60;99.90
9849;DHT22;4963;51.444;6.528;2022-11-09T01:48:33;13.60;99.90
9849;DHT22;4963;51.444;6.528;2022-11-09T01:51:06;13.60;99.90
9849;DHT22;4963;51.444;6.528;2022-11-09T01:53:38;13.60;99.90
9849;DHT22;4963;51.444;6.528;2022-11-09T01:56:07;13.60;99.90
9849;DHT22;4963;51.444;6.528;2022-11-09T01:58:38;13.60;99.90
9849;DHT22;4963;51.444;6.528;2022-11-09T02:01:06;13.50;99.90
9849;DHT22;4963;51.444;6.528;2022-11-09T02:03:41;13.50;99.90
9849;DHT22;4963;51.444;6.528;2022-11-09T02:06:10;13.50;99.90
9849;DHT22;4963;51.444;6.528;2022-11-09T02:08:38;13.50;99.90
9849;DHT22;4963;51.444;6.528;2022-11-09T02:11:08;13.50;99.90
9849;DHT22;4963;51.444;6.528;2022-11-09T02:13:37;13.40;99.90
9849;DHT22;4963;51.444;6.528;2022-11-09T02:16:05;13.40;99.90
9849;DHT22;4963;51.444;6.528;2022-11-09T02:18:33;13.40;99.90
9849;DHT22;4963;51.444;6.528;2022-11-09T02:21:02;13.40;99.90
9849;DHT22;4963;51.444;6.528;2022-11-09T02:23:29;13.40;99.90
9849;DHT22;4963;51.444;6.528;2022-11-09T02:25:58;13.30;99.90
9849;DHT22;4963;51.444;6.528;2022-11-09T02:28:27;13.30;99.90
9849;DHT22;4963;51.444;6.528;2022-11-09T02:30:55;13.30;99.90
9849;DHT22;4963;51.444;6.528;2022-11-09T02:33:23;13.30;99.90
9849;DHT22;4963;51.444;6.528;2022-11-09T02:35:50;13.30;99.90
9849;DHT22;4963;51.444;6.528;2022-11-09T02:38:18;13.30;99.90
9849;DHT22;4963;51.444;6.528;2022-11-09T02:40:47;13.30;99.90
9849;DHT22;4963;51.444;6.528;2022-11-09T02:43:15;13.20;99.90
9849;DHT22;4963;51.444;6.528;2022-11-09T02:45:43;13.20;99.90
9849;DHT22;4963;51.444;6.528;2022-11-09T02:48:10;13.30;99.90
9849;DHT22;4963;51.444;6.528;2022-11-09T02:50:37;13.20;99.90
9849;DHT22;4963;51.444;6.528;2022-11-09T02:53:03;13.20;99.90
9849;DHT22;4963;51.444;6.528;2022-11-09T02:55:32;13.30;99.90
9849;DHT22;4963;51.444;6.528;2022-11-09T02:57:59;13.30;99.90
9849;DHT22;4963;51.444;6.528;2022-11-09T03:00:26;13.30;99.90
9849;DHT22;4963;51.444;6.528;2022-11-09T03:02:53;13.30;99.90
9849;DHT22;4963;51.444;6.528;2022-11-09T03:05:20;13.30;99.90
9849;DHT22;4963;51.444;6.528;2022-11-09T03:07:47;13.30;99.90
9849;DHT22;4963;51.444;6.528;2022-11-09T03:10:13;13.30;99.90
9849;DHT22;4963;51.444;6.528;2022-11-09T03:12:42;13.20;99.90
9849;DHT22;4963;51.444;6.528;2022-11-09T03:15:09;13.20;99.90
9849;DHT22;4963;51.444;6.528;2022-11-09T03:17:36;13.20;99.90
9849;DHT22;4963;51.444;6.528;2022-11-09T03:20:04;13.20;99.90
9849;DHT22;4963;51.444;6.528;2022-11-09T03:22:31;13.20;99.90
9849;DHT22;4963;51.444;6.528;2022-11-09T03:24:57;13.20;99.90
9849;DHT22;4963;51.444;6.528;2022-11-09T03:27:24;13.20;99.90
9849;DHT22;4963;51.444;6.528;2022-11-09T03:29:52;13.30;99.90
9849;DHT22;4963;51.444;6.528;2022-11-09T03:32:19;13.20;99.90
9849;DHT22;4963;51.444;6.528;2022-11-09T03:34:46;13.20;99.90
9849;DHT22;4963;51.444;6.528;2022-11-09T03:37:13;13.30;99.90
9849;DHT22;4963;51.444;6.528;2022-11-09T03:39:40;13.20;99.90
9849;DHT22;4963;51.444;6.528;2022-11-09T03:42:07;13.20;99.90
9849;DHT22;4963;51.444;6.528;2022-11-09T03:44:34;13.20;99.90
9849;DHT22;4963;51.444;6.528;2022-11-09T03:47:02;13.30;99.90
9849;DHT22;4963;51.444;6.528;2022-11-09T03:49:29;13.30;99.90
9849;DHT22;4963;51.444;6.528;2022-11-09T03:51:55;13.20;99.90
9849;DHT22;4963;51.444;6.528;2022-11-09T03:54:22;13.20;99.90
9849;DHT22;4963;51.444;6.528;2022-11-09T03:56:49;13.30;99.90
9849;DHT22;4963;51.444;6.528;2022-11-09T03:59:16;13.20;99.90
9849;DHT22;4963;51.444;6.528;2022-11-09T04:01:43;13.30;99.90
9849;DHT22;4963;51.444;6.528;2022-11-09T04:04:11;13.30;99.90
9849;DHT22;4963;51.444;6.528;2022-11-09T04:06:38;13.30;99.90
9849;DHT22;4963;51.444;6.528;2022-11-09T04:09:05;13.30;99.90
9849;DHT22;4963;51.444;6.528;2022-11-09T04:11:32;13.30;99.90
9849;DHT22;4963;51.444;6.528;2022-11-09T04:13:58;13.30;99.90
9849;DHT22;4963;51.444;6.528;2022-11-09T04:16:25;13.30;99.90
9849;DHT22;4963;51.444;6.528;2022-11-09T04:18:52;13.40;99.90
9849;DHT22;4963;51.444;6.528;2022-11-09T04:21:20;13.30;99.90
9849;DHT22;4963;51.444;6.528;2022-11-09T04:23:47;13.40;99.90
9849;DHT22;4963;51.444;6.528;2022-11-09T04:26:14;13.40;99.90
9849;DHT22;4963;51.444;6.528;2022-11-09T04:28:41;13.40;99.90
9849;DHT22;4963;51.444;6.528;2022-11-09T04:31:08;13.50;99.90
9849;DHT22;4963;51.444;6.528;2022-11-09T04:33:35;13.50;99.90
9849;DHT22;4963;51.444;6.528;2022-11-09T04:36:02;13.40;99.90
9849;DHT22;4963;51.444;6.528;2022-11-09T04:38:30;13.50;99.90
9849;DHT22;4963;51.444;6.528;2022-11-09T04:40:59;13.40;99.90
9849;DHT22;4963;51.444;6.528;2022-11-09T04:43:26;13.40;99.90
9849;DHT22;4963;51.444;6.528;2022-11-09T04:45:53;13.30;99.90
9849;DHT22;4963;51.444;6.528;2022-11-09T04:48:20;13.30;99.90
9849;DHT22;4963;51.444;6.528;2022-11-09T04:50:47;13.30;99.90
9849;DHT22;4963;51.444;6.528;2022-11-09T04:53:14;13.30;99.90
9849;DHT22;4963;51.444;6.528;2022-11-09T04:55:42;13.30;99.90
9849;DHT22;4963;51.444;6.528;2022-11-09T04:58:10;13.20;99.90
9849;DHT22;4963;51.444;6.528;2022-11-09T05:00:37;13.20;99.90
9849;DHT22;4963;51.444;6.528;2022-11-09T05:03:05;13.10;99.90
9849;DHT22;4963;51.444;6.528;2022-11-09T05:05:33;13.10;99.90
9849;DHT22;4963;51.444;6.528;2022-11-09T05:08:00;13.10;99.90
9849;DHT22;4963;51.444;6.528;2022-11-09T05:10:27;13.10;99.90
9849;DHT22;4963;51.444;6.528;2022-11-09T05:12:58;13.10;99.90
9849;DHT22;4963;51.444;6.528;2022-11-09T05:15:25;13.10;99.90
9849;DHT22;4963;51.444;6.528;2022-11-09T05:17:52;13.10;99.90
9849;DHT22;4963;51.444;6.528;2022-11-09T05:20:19;13.10;99.90
9849;DHT22;4963;51.444;6.528;2022-11-09T05:22:46;13.10;99.90
9849;DHT22;4963;51.444;6.528;2022-11-09T05:25:31;13.10;99.90
9849;DHT22;4963;51.444;6.528;2022-11-09T05:27:59;13.10;99.90
9849;DHT22;4963;51.444;6.528;2022-11-09T05:30:26;13.10;99.90
9849;DHT22;4963;51.444;6.528;2022-11-09T05:32:53;13.10;99.90
9849;DHT22;4963;51.444;6.528;2022-11-09T05:35:19;13.10;99.90
9849;DHT22;4963;51.444;6.528;2022-11-09T05:37:46;13.10;99.90
9849;DHT22;4963;51.444;6.528;2022-11-09T05:40:14;13.20;99.90
9849;DHT22;4963;51.444;6.528;2022-11-09T05:42:43;13.10;99.90
9849;DHT22;4963;51.444;6.528;2022-11-09T05:45:13;13.10;99.90
9849;DHT22;4963;51.444;6.528;2022-11-09T05:47:42;13.10;99.90
9849;DHT22;4963;51.444;6.528;2022-11-09T05:50:11;13.10;99.90
9849;DHT22;4963;51.444;6.528;2022-11-09T05:52:38;13.10;99.90
9849;DHT22;4963;51.444;6.528;2022-11-09T05:55:06;13.10;99.90
9849;DHT22;4963;51.444;6.528;2022-11-09T05:57:33;13.00;99.90
9849;DHT22;4963;51.444;6.528;2022-11-09T06:00:00;13.10;99.90
9849;DHT22;4963;51.444;6.528;2022-11-09T06:02:31;13.00;99.90
9849;DHT22;4963;51.444;6.528;2022-11-09T06:04:57;13.00;99.90
9849;DHT22;4963;51.444;6.528;2022-11-09T06:07:24;13.00;99.90
9849;DHT22;4963;51.444;6.528;2022-11-09T06:09:51;13.00;99.90
9849;DHT22;4963;51.444;6.528;2022-11-09T06:12:18;13.00;99.90
9849;DHT22;4963;51.444;6.528;2022-11-09T06:14:45;13.00;99.90
9849;DHT22;4963;51.444;6.528;2022-11-09T06:17:11;13.00;99.90
9849;DHT22;4963;51.444;6.528;2022-11-09T06:19:39;13.00;99.90
9849;DHT22;4963;51.444;6.528;2022-11-09T06:22:06;12.90;99.90
9849;DHT22;4963;51.444;6.528;2022-11-09T06:24:33;12.90;99.90
9849;DHT22;4963;51.444;6.528;2022-11-09T06:27:00;12.90;99.90
9849;DHT22;4963;51.444;6.528;2022-11-09T06:29:27;12.80;99.90
9849;DHT22;4963;51.444;6.528;2022-11-09T06:31:53;12.80;99.90
9849;DHT22;4963;51.444;6.528;2022-11-09T06:34:20;12.80;99.90
9849;DHT22;4963;51.444;6.528;2022-11-09T06:36:48;12.90;99.90
9849;DHT22;4963;51.444;6.528;2022-11-09T06:39:15;12.90;99.90
9849;DHT22;4963;51.444;6.528;2022-11-09T06:41:42;12.90;99.90
9849;DHT22;4963;51.444;6.528;2022-11-09T06:44:09;12.80;99.90
9849;DHT22;4963;51.444;6.528;2022-11-09T06:46:36;12.90;99.90
9849;DHT22;4963;51.444;6.528;2022-11-09T06:49:02;12.80;99.90
9849;DHT22;4963;51.444;6.528;2022-11-09T06:51:29;12.80;99.90
9849;DHT22;4963;51.444;6.528;2022-11-09T06:53:57;12.90;99.90
9849;DHT22;4963;51.444;6.528;2022-11-09T06:56:24;12.80;99.90
9849;DHT22;4963;51.444;6.528;2022-11-09T06:58:51;12.70;99.90
9849;DHT22;4963;51.444;6.528;2022-11-09T07:01:19;12.70;99.90
9849;DHT22;4963;51.444;6.528;2022-11-09T07:03:47;12.70;99.90
9849;DHT22;4963;51.444;6.528;2022-11-09T07:06:14;12.70;99.90
9849;DHT22;4963;51.444;6.528;2022-11-09T07:08:41;12.70;99.90
9849;DHT22;4963;51.444;6.528;2022-11-09T07:11:10;12.70;99.90
9849;DHT22;4963;51.444;6.528;2022-11-09T07:13:38;12.70;99.90
9849;DHT22;4963;51.444;6.528;2022-11-09T07:16:06;12.60;99.90
9849;DHT22;4963;51.444;6.528;2022-11-09T07:18:33;12.60;99.90
9849;DHT22;4963;51.444;6.528;2022-11-09T07:21:03;12.60;99.90
9849;DHT22;4963;51.444;6.528;2022-11-09T07:23:30;12.60;99.90
9849;DHT22;4963;51.444;6.528;2022-11-09T07:25:57;12.60;99.90
9849;DHT22;4963;51.444;6.528;2022-11-09T07:28:25;12.60;99.90
9849;DHT22;4963;51.444;6.528;2022-11-09T07:30:52;12.60;99.90
9849;DHT22;4963;51.444;6.528;2022-11-09T07:33:19;12.60;99.90
9849;DHT22;4963;51.444;6.528;2022-11-09T07:35:47;12.70;99.90
9849;DHT22;4963;51.444;6.528;2022-11-09T07:38:14;12.70;99.90
9849;DHT22;4963;51.444;6.528;2022-11-09T07:40:42;12.70;99.90
9849;DHT22;4963;51.444;6.528;2022-11-09T07:43:10;12.80;99.90
9849;DHT22;4963;51.444;6.528;2022-11-09T07:45:39;12.70;99.90
9849;DHT22;4963;51.444;6.528;2022-11-09T07:48:07;12.80;99.90
9849;DHT22;4963;51.444;6.528;2022-11-09T07:50:37;12.80;99.90
9849;DHT22;4963;51.444;6.528;2022-11-09T07:53:04;12.70;99.90
9849;DHT22;4963;51.444;6.528;2022-11-09T07:55:33;12.80;99.90
9849;DHT22;4963;51.444;6.528;2022-11-09T07:58:02;12.90;99.90
9849;DHT22;4963;51.444;6.528;2022-11-09T08:00:31;13.00;99.90
9849;DHT22;4963;51.444;6.528;2022-11-09T08:03:00;13.10;99.90
9849;DHT22;4963;51.444;6.528;2022-11-09T08:05:27;13.20;99.90
9849;DHT22;4963;51.444;6.528;2022-11-09T08:07:55;13.20;99.90
9849;DHT22;4963;51.444;6.528;2022-11-09T08:10:22;13.20;99.90
9849;DHT22;4963;51.444;6.528;2022-11-09T08:12:53;13.20;99.90
9849;DHT22;4963;51.444;6.528;2022-11-09T08:15:20;13.10;99.90
9849;DHT22;4963;51.444;6.528;2022-11-09T08:17:47;13.10;99.90
9849;DHT22;4963;51.444;6.528;2022-11-09T08:20:16;13.10;99.90
9849;DHT22;4963;51.444;6.528;2022-11-09T08:22:45;13.10;99.90
9849;DHT22;4963;51.444;6.528;2022-11-09T08:25:13;13.10;99.90
9849;DHT22;4963;51.444;6.528;2022-11-09T08:27:40;13.00;99.90
9849;DHT22;4963;51.444;6.528;2022-11-09T08:30:10;13.10;99.90
9849;DHT22;4963;51.444;6.528;2022-11-09T08:32:37;13.10;99.90
9849;DHT22;4963;51.444;6.528;2022-11-09T08:35:05;13.10;99.90
9849;DHT22;4963;51.444;6.528;2022-11-09T08:37:36;13.20;99.90
9849;DHT22;4963;51.444;6.528;2022-11-09T08:40:04;13.20;99.90
9849;DHT22;4963;51.444;6.528;2022-11-09T08:42:31;13.20;99.90
9849;DHT22;4963;51.444;6.528;2022-11-09T08:44:58;13.20;99.90
9849;DHT22;4963;51.444;6.528;2022-11-09T08:47:25;13.20;99.90
9849;DHT22;4963;51.444;6.528;2022-11-09T08:49:52;13.20;99.90
9849;DHT22;4963;51.444;6.528;2022-11-09T08:52:18;13.20;99.90
9849;DHT22;4963;51.444;6.528;2022-11-09T08:54:46;13.30;99.90
9849;DHT22;4963;51.444;6.528;2022-11-09T08:57:13;13.20;99.90
9849;DHT22;4963;51.444;6.528;2022-11-09T08:59:40;13.20;99.90
9849;DHT22;4963;51.444;6.528;2022-11-09T09:02:08;13.20;99.90
9849;DHT22;4963;51.444;6.528;2022-11-09T09:04:35;13.30;99.90
9849;DHT22;4963;51.444;6.528;2022-11-09T09:07:01;13.20;99.90
9849;DHT22;4963;51.444;6.528;2022-11-09T09:09:28;13.20;99.90
9849;DHT22;4963;51.444;6.528;2022-11-09T09:11:56;13.30;99.90
9849;DHT22;4963;51.444;6.528;2022-11-09T09:14:24;13.30;99.90
9849;DHT22;4963;51.444;6.528;2022-11-09T09:16:50;13.40;99.90
9849;DHT22;4963;51.444;6.528;2022-11-09T09:19:17;13.40;99.90
9849;DHT22;4963;51.444;6.528;2022-11-09T09:21:44;13.40;99.90
9849;DHT22;4963;51.444;6.528;2022-11-09T09:24:11;13.50;99.90
9849;DHT22;4963;51.444;6.528;2022-11-09T09:26:38;13.50;99.90
9849;DHT22;4963;51.444;6.528;2022-11-09T09:29:06;13.60;99.90
9849;DHT22;4963;51.444;6.528;2022-11-09T09:31:33;13.60;99.90
9849;DHT22;4963;51.444;6.528;2022-11-09T09:34:00;13.70;99.90
9849;DHT22;4963;51.444;6.528;2022-11-09T09:36:26;13.70;99.90
9849;DHT22;4963;51.444;6.528;2022-11-09T09:38:53;13.70;99.90
9849;DHT22;4963;51.444;6.528;2022-11-09T09:41:22;13.70;99.90
9849;DHT22;4963;51.444;6.528;2022-11-09T09:43:52;13.80;99.90
9849;DHT22;4963;51.444;6.528;2022-11-09T09:46:25;13.70;99.90
9849;DHT22;4963;51.444;6.528;2022-11-09T09:48:57;13.80;99.90
9849;DHT22;4963;51.444;6.528;2022-11-09T09:51:31;13.80;99.90
9849;DHT22;4963;51.444;6.528;2022-11-09T09:54:04;13.90;99.90
9849;DHT22;4963;51.444;6.528;2022-11-09T09:56:34;13.90;99.90
9849;DHT22;4963;51.444;6.528;2022-11-09T09:59:09;14.00;99.90
9849;DHT22;4963;51.444;6.528;2022-11-09T10:01:40;14.00;99.90
9849;DHT22;4963;51.444;6.528;2022-11-09T10:04:14;14.10;99.90
9849;DHT22;4963;51.444;6.528;2022-11-09T10:06:54;14.10;99.90
9849;DHT22;4963;51.444;6.528;2022-11-09T10:09:35;14.10;99.90
9849;DHT22;4963;51.444;6.528;2022-11-09T10:12:10;14.20;99.90
9849;DHT22;4963;51.444;6.528;2022-11-09T10:14:52;14.20;99.90
9849;DHT22;4963;51.444;6.528;2022-11-09T10:17:32;14.20;99.90
9849;DHT22;4963;51.444;6.528;2022-11-09T10:20:10;14.20;99.90
9849;DHT22;4963;51.444;6.528;2022-11-09T10:22:47;14.30;99.90
9849;DHT22;4963;51.444;6.528;2022-11-09T10:25:22;14.20;99.90
9849;DHT22;4963;51.444;6.528;2022-11-09T10:27:52;14.30;99.90
9849;DHT22;4963;51.444;6.528;2022-11-09T10:30:21;14.30;99.90
9849;DHT22;4963;51.444;6.528;2022-11-09T10:32:53;14.40;99.90
9849;DHT22;4963;51.444;6.528;2022-11-09T10:35:25;14.40;99.90
9849;DHT22;4963;51.444;6.528;2022-11-09T10:37:53;14.40;99.90
9849;DHT22;4963;51.444;6.528;2022-11-09T10:40:23;14.50;99.90
9849;DHT22;4963;51.444;6.528;2022-11-09T10:42:54;14.50;99.90
9849;DHT22;4963;51.444;6.528;2022-11-09T10:45:27;14.60;99.90
9849;DHT22;4963;51.444;6.528;2022-11-09T10:47:56;14.50;99.90
9849;DHT22;4963;51.444;6.528;2022-11-09T10:50:31;14.50;99.90
9849;DHT22;4963;51.444;6.528;2022-11-09T10:53:11;14.50;99.90
9849;DHT22;4963;51.444;6.528;2022-11-09T10:55:49;14.50;99.90
9849;DHT22;4963;51.444;6.528;2022-11-09T10:58:23;14.50;99.90
9849;DHT22;4963;51.444;6.528;2022-11-09T11:00:57;14.50;99.90
9849;DHT22;4963;51.444;6.528;2022-11-09T11:03:26;14.50;99.90
9849;DHT22;4963;51.444;6.528;2022-11-09T11:05:57;14.50;99.90
9849;DHT22;4963;51.444;6.528;2022-11-09T11:08:35;14.50;99.90
9849;DHT22;4963;51.444;6.528;2022-11-09T11:11:18;14.50;99.90
9849;DHT22;4963;51.444;6.528;2022-11-09T11:13:45;14.60;99.90
9849;DHT22;4963;51.444;6.528;2022-11-09T11:16:25;14.60;99.90
9849;DHT22;4963;51.444;6.528;2022-11-09T11:18:54;14.60;99.90
9849;DHT22;4963;51.444;6.528;2022-11-09T11:21:23;14.50;99.90
9849;DHT22;4963;51.444;6.528;2022-11-09T11:24:12;14.50;99.90
9849;DHT22;4963;51.444;6.528;2022-11-09T11:26:45;14.50;99.90
9849;DHT22;4963;51.444;6.528;2022-11-09T11:29:37;14.50;99.90
9849;DHT22;4963;51.444;6.528;2022-11-09T11:32:09;14.60;99.90
9849;DHT22;4963;51.444;6.528;2022-11-09T11:34:39;14.60;99.90
9849;DHT22;4963;51.444;6.528;2022-11-09T11:37:24;14.60;99.90
9849;DHT22;4963;51.444;6.528;2022-11-09T11:40:00;14.60;99.90
9849;DHT22;4963;51.444;6.528;2022-11-09T11:42:49;14.60;99.90
9849;DHT22;4963;51.444;6.528;2022-11-09T11:45:25;14.60;99.90
9849;DHT22;4963;51.444;6.528;2022-11-09T11:48:19;14.60;99.90
9849;DHT22;4963;51.444;6.528;2022-11-09T11:50:52;14.60;99.90
9849;DHT22;4963;51.444;6.528;2022-11-09T11:53:36;14.60;99.90
9849;DHT22;4963;51.444;6.528;2022-11-09T11:56:20;14.60;99.90
9849;DHT22;4963;51.444;6.528;2022-11-09T11:58:59;14.60;99.90
9849;DHT22;4963;51.444;6.528;2022-11-09T12:01:41;14.60;99.90
9849;DHT22;4963;51.444;6.528;2022-11-09T12:04:20;14.60;99.90
9849;DHT22;4963;51.444;6.528;2022-11-09T12:07:04;14.60;99.90
9849;DHT22;4963;51.444;6.528;2022-11-09T12:09:47;14.60;99.90
9849;DHT22;4963;51.444;6.528;2022-11-09T12:12:26;14.60;99.90
9849;DHT22;4963;51.444;6.528;2022-11-09T12:15:10;14.60;99.90
9849;DHT22;4963;51.444;6.528;2022-11-09T12:17:48;14.70;99.90
9849;DHT22;4963;51.444;6.528;2022-11-09T12:20:23;14.60;99.90
9849;DHT22;4963;51.444;6.528;2022-11-09T12:23:19;14.60;99.90
9849;DHT22;4963;51.444;6.528;2022-11-09T12:25:59;14.60;99.90
9849;DHT22;4963;51.444;6.528;2022-11-09T12:28:43;14.60;99.90
9849;DHT22;4963;51.444;6.528;2022-11-09T12:31:22;14.70;99.90
9849;DHT22;4963;51.444;6.528;2022-11-09T12:33:58;14.70;99.90
9849;DHT22;4963;51.444;6.528;2022-11-09T12:36:32;14.70;99.90
9849;DHT22;4963;51.444;6.528;2022-11-09T12:39:06;14.70;99.90
9849;DHT22;4963;51.444;6.528;2022-11-09T12:41:37;14.80;99.90
9849;DHT22;4963;51.444;6.528;2022-11-09T12:44:09;14.70;99.90
9849;DHT22;4963;51.444;6.528;2022-11-09T12:46:41;14.80;99.90
9849;DHT22;4963;51.444;6.528;2022-11-09T12:49:26;14.80;99.90
9849;DHT22;4963;51.444;6.528;2022-11-09T12:51:55;14.70;99.90
9849;DHT22;4963;51.444;6.528;2022-11-09T12:54:24;14.70;99.90
9849;DHT22;4963;51.444;6.528;2022-11-09T12:56:55;14.70;99.90
9849;DHT22;4963;51.444;6.528;2022-11-09T12:59:34;14.60;99.90
9849;DHT22;4963;51.444;6.528;2022-11-09T13:02:02;14.60;99.90
9849;DHT22;4963;51.444;6.528;2022-11-09T13:04:30;14.60;99.90
9849;DHT22;4963;51.444;6.528;2022-11-09T13:07:18;14.50;99.90
9849;DHT22;4963;51.444;6.528;2022-11-09T13:09:53;14.50;99.90
9849;DHT22;4963;51.444;6.528;2022-11-09T13:12:31;14.50;99.90
9849;DHT22;4963;51.444;6.528;2022-11-09T13:15:16;14.50;99.90
9849;DHT22;4963;51.444;6.528;2022-11-09T13:18:02;14.50;99.90
9849;DHT22;4963;51.444;6.528;2022-11-09T13:20:45;14.50;99.90
9849;DHT22;4963;51.444;6.528;2022-11-09T13:23:28;14.50;99.90
9849;DHT22;4963;51.444;6.528;2022-11-09T13:25:56;14.50;99.90
9849;DHT22;4963;51.444;6.528;2022-11-09T13:32:01;14.50;99.90
9849;DHT22;4963;51.444;6.528;2022-11-09T13:34:41;14.50;99.90
9849;DHT22;4963;51.444;6.528;2022-11-09T13:37:33;14.50;99.90
9849;DHT22;4963;51.444;6.528;2022-11-09T13:40:01;14.50;99.90
9849;DHT22;4963;51.444;6.528;2022-11-09T13:42:30;14.50;99.90
9849;DHT22;4963;51.444;6.528;2022-11-09T13:45:27;14.40;99.90
9849;DHT22;4963;51.444;6.528;2022-11-09T13:47:55;14.40;99.90
9849;DHT22;4963;51.444;6.528;2022-11-09T13:50:23;14.40;99.90
9849;DHT22;4963;51.444;6.528;2022-11-09T13:52:52;14.40;99.90
9849;DHT22;4963;51.444;6.528;2022-11-09T13:55:25;14.40;99.90
9849;DHT22;4963;51.444;6.528;2022-11-09T13:57:59;14.40;99.90
9849;DHT22;4963;51.444;6.528;2022-11-09T14:00:27;14.40;99.90
9849;DHT22;4963;51.444;6.528;2022-11-09T14:02:56;14.40;99.90
9849;DHT22;4963;51.444;6.528;2022-11-09T14:05:27;14.30;99.90
9849;DHT22;4963;51.444;6.528;2022-11-09T14:07:55;14.30;99.90
9849;DHT22;4963;51.444;6.528;2022-11-09T14:10:40;14.30;99.90
9849;DHT22;4963;51.444;6.528;2022-11-09T14:13:31;14.30;99.90
9849;DHT22;4963;51.444;6.528;2022-11-09T14:16:05;14.20;99.90
9849;DHT22;4963;51.444;6.528;2022-11-09T14:18:41;14.30;99.90
9849;DHT22;4963;51.444;6.528;2022-11-09T14:21:24;14.20;99.90
9849;DHT22;4963;51.444;6.528;2022-11-09T14:23:53;14.20;99.90
9849;DHT22;4963;51.444;6.528;2022-11-09T14:26:22;14.20;99.90
9849;DHT22;4963;51.444;6.528;2022-11-09T14:28:51;14.20;99.90
9849;DHT22;4963;51.444;6.528;2022-11-09T14:31:22;14.20;99.90
9849;DHT22;4963;51.444;6.528;2022-11-09T14:33:58;14.20;99.90
9849;DHT22;4963;51.444;6.528;2022-11-09T14:36:26;14.20;99.90
9849;DHT22;4963;51.444;6.528;2022-11-09T14:38:54;14.20;99.90
9849;DHT22;4963;51.444;6.528;2022-11-09T14:41:23;14.10;99.90
9849;DHT22;4963;51.444;6.528;2022-11-09T14:43:52;14.10;99.90
9849;DHT22;4963;51.444;6.528;2022-11-09T14:46:22;14.10;99.90
9849;DHT22;4963;51.444;6.528;2022-11-09T14:48:51;14.10;99.90
9849;DHT22;4963;51.444;6.528;2022-11-09T14:51:19;14.00;99.90
9849;DHT22;4963;51.444;6.528;2022-11-09T14:53:48;14.00;99.90
9849;DHT22;4963;51.444;6.528;2022-11-09T14:56:18;14.00;99.90
9849;DHT22;4963;51.444;6.528;2022-11-09T14:58:45;14.00;99.90
9849;DHT22;4963;51.444;6.528;2022-11-09T15:01:22;14.10;99.90
9849;DHT22;4963;51.444;6.528;2022-11-09T15:04:09;14.10;99.90
9849;DHT22;4963;51.444;6.528;2022-11-09T15:06:44;14.10;99.90
9849;DHT22;4963;51.444;6.528;2022-11-09T15:09:17;14.00;99.90
9849;DHT22;4963;51.444;6.528;2022-11-09T15:11:45;13.90;99.90
9849;DHT22;4963;51.444;6.528;2022-11-09T15:14:14;13.90;99.90
9849;DHT22;4963;51.444;6.528;2022-11-09T15:16:49;13.90;99.90
9849;DHT22;4963;51.444;6.528;2022-11-09T15:19:23;13.90;99.90
9849;DHT22;4963;51.444;6.528;2022-11-09T15:21:53;13.90;99.90
9849;DHT22;4963;51.444;6.528;2022-11-09T15:24:21;13.80;99.90
9849;DHT22;4963;51.444;6.528;2022-11-09T15:26:50;13.80;99.90
9849;DHT22;4963;51.444;6.528;2022-11-09T15:29:33;13.70;99.90
9849;DHT22;4963;51.444;6.528;2022-11-09T15:32:12;13.70;99.90
9849;DHT22;4963;51.444;6.528;2022-11-09T15:34:41;13.60;99.90
9849;DHT22;4963;51.444;6.528;2022-11-09T15:37:22;13.60;99.90
9849;DHT22;4963;51.444;6.528;2022-11-09T15:39:50;13.50;99.90
9849;DHT22;4963;51.444;6.528;2022-11-09T15:42:17;13.50;99.90
9849;DHT22;4963;51.444;6.528;2022-11-09T15:44:44;13.40;99.90
9849;DHT22;4963;51.444;6.528;2022-11-09T15:47:22;13.40;99.90
9849;DHT22;4963;51.444;6.528;2022-11-09T15:49:49;13.40;99.90
9849;DHT22;4963;51.444;6.528;2022-11-09T15:52:16;13.30;99.90
9849;DHT22;4963;51.444;6.528;2022-11-09T15:54:43;13.30;99.90
9849;DHT22;4963;51.444;6.528;2022-11-09T15:57:14;13.20;99.90
9849;DHT22;4963;51.444;6.528;2022-11-09T15:59:44;13.20;99.90
9849;DHT22;4963;51.444;6.528;2022-11-09T16:02:12;13.20;99.90
9849;DHT22;4963;51.444;6.528;2022-11-09T16:04:40;13.10;99.90
9849;DHT22;4963;51.444;6.528;2022-11-09T16:07:09;13.00;99.90
9849;DHT22;4963;51.444;6.528;2022-11-09T16:09:39;13.00;99.90
9849;DHT22;4963;51.444;6.528;2022-11-09T16:12:06;13.00;99.90
9849;DHT22;4963;51.444;6.528;2022-11-09T16:14:33;12.90;99.90
9849;DHT22;4963;51.444;6.528;2022-11-09T16:17:00;12.80;99.90
9849;DHT22;4963;51.444;6.528;2022-11-09T16:19:27;12.80;99.90
9849;DHT22;4963;51.444;6.528;2022-11-09T16:21:55;12.80;99.90
9849;DHT22;4963;51.444;6.528;2022-11-09T16:24:23;12.80;99.90
9849;DHT22;4963;51.444;6.528;2022-11-09T16:26:49;12.80;99.90